createdAt,value
2022-12-17T00:01:56.456Z,-2.80
2022-12-17T00:04:41.381Z,-2.80
2022-12-17T00:07:26.582Z,-2.80
2022-12-17T00:10:28.783Z,-2.80
2022-12-17T00:13:14.223Z,-2.90
2022-12-17T00:15:59.792Z,-2.80
2022-12-17T00:18:45.093Z,-2.90
2022-12-17T00:21:30.895Z,-3.00
2022-12-17T00:24:16.561Z,-3.00
2022-12-17T00:27:03.680Z,-3.00
2022-12-17T00:29:49.255Z,-3.00
2022-12-17T00:32:36.787Z,-3.00
2022-12-17T00:35:22.611Z,-3.10
2022-12-17T00:38:08.125Z,-3.10
2022-12-17T00:40:53.906Z,-3.10
2022-12-17T00:43:42.803Z,-3.20
2022-12-17T00:46:28.661Z,-3.30
2022-12-17T00:49:14.690Z,-3.20
2022-12-17T00:52:00.100Z,-3.30
2022-12-17T00:54:46.314Z,-3.40
2022-12-17T00:57:34.844Z,-3.40
2022-12-17T01:00:22.118Z,-3.40
2022-12-17T01:03:07.701Z,-3.40
2022-12-17T01:05:53.445Z,-3.40
2022-12-17T01:08:39.497Z,-3.50
2022-12-17T01:11:26.431Z,-3.50
2022-12-17T01:14:12.345Z,-3.50
2022-12-17T01:16:59.907Z,-3.60
2022-12-17T01:19:45.628Z,-3.60
2022-12-17T01:22:31.131Z,-3.60
2022-12-17T01:25:16.683Z,-3.70
2022-12-17T01:28:02.442Z,-3.70
2022-12-17T01:30:47.890Z,-3.70
2022-12-17T01:33:34.924Z,-3.70
2022-12-17T01:36:20.479Z,-3.70
2022-12-17T01:39:06.051Z,-3.60
2022-12-17T01:41:51.574Z,-3.70
2022-12-17T01:45:11.721Z,-3.80
2022-12-17T01:48:02.885Z,-3.80
2022-12-17T01:50:53.377Z,-3.80
2022-12-17T01:53:42.045Z,-3.90
2022-12-17T01:56:27.873Z,-3.90
2022-12-17T01:59:13.630Z,-3.90
2022-12-17T02:01:59.502Z,-3.90
2022-12-17T02:04:46.011Z,-3.90
2022-12-17T02:07:45.101Z,-3.90
2022-12-17T02:10:41.825Z,-3.90
2022-12-17T02:13:35.401Z,-4.00
2022-12-17T02:16:26.665Z,-4.00
2022-12-17T02:19:17.841Z,-4.00
2022-12-17T02:22:10.540Z,-4.00
2022-12-17T02:25:08.057Z,-4.00
2022-12-17T02:27:55.351Z,-4.00
2022-12-17T02:30:41.273Z,-4.10
2022-12-17T02:33:27.718Z,-4.00
2022-12-17T02:36:18.624Z,-4.10
2022-12-17T02:39:04.124Z,-4.10
2022-12-17T02:41:53.575Z,-4.20
2022-12-17T02:44:40.835Z,-4.20
2022-12-17T02:47:29.772Z,-4.20
2022-12-17T02:50:15.373Z,-4.20
2022-12-17T02:53:04.990Z,-4.20
2022-12-17T02:55:50.573Z,-4.30
2022-12-17T02:58:39.725Z,-4.20
2022-12-17T03:01:28.477Z,-4.30
2022-12-17T03:04:14.126Z,-4.30
2022-12-17T03:06:59.918Z,-4.40
2022-12-17T03:09:45.682Z,-4.30
2022-12-17T03:12:31.117Z,-4.30
2022-12-17T03:15:16.750Z,-4.30
2022-12-17T03:18:03.461Z,-4.40
2022-12-17T03:20:52.530Z,-4.40
2022-12-17T03:23:49.604Z,-4.40
2022-12-17T03:26:34.969Z,-4.40
2022-12-17T03:29:20.545Z,-4.40
2022-12-17T03:32:06.212Z,-4.40
2022-12-17T03:34:52.979Z,-4.40
2022-12-17T03:37:43.922Z,-4.40
2022-12-17T03:40:29.941Z,-4.50
2022-12-17T03:43:15.622Z,-4.50
2022-12-17T03:46:01.281Z,-4.50
2022-12-17T03:48:46.473Z,-4.50
2022-12-17T03:51:33.570Z,-4.60
2022-12-17T03:54:19.065Z,-4.60
2022-12-17T03:57:04.539Z,-4.60
2022-12-17T03:59:50.240Z,-4.60
2022-12-17T04:02:36.086Z,-4.60
2022-12-17T04:05:21.977Z,-4.60
2022-12-17T04:08:08.812Z,-4.60
2022-12-17T04:10:54.223Z,-4.60
2022-12-17T04:13:43.135Z,-4.60
2022-12-17T04:16:29.466Z,-4.60
2022-12-17T04:19:15.016Z,-4.60
2022-12-17T04:22:00.648Z,-4.70
2022-12-17T04:24:47.599Z,-4.70
2022-12-17T04:27:33.410Z,-4.60
2022-12-17T04:30:18.972Z,-4.70
2022-12-17T04:33:04.697Z,-4.60
2022-12-17T04:35:50.235Z,-4.60
2022-12-17T04:38:36.004Z,-4.60
2022-12-17T04:41:23.406Z,-4.70
2022-12-17T04:44:08.831Z,-4.60
2022-12-17T04:46:54.474Z,-4.60
2022-12-17T04:49:43.343Z,-4.70
2022-12-17T04:52:28.968Z,-4.60
2022-12-17T04:55:14.809Z,-4.70
2022-12-17T04:58:01.496Z,-4.70
2022-12-17T05:00:47.365Z,-4.70
2022-12-17T05:03:35.224Z,-4.70
2022-12-17T05:06:21.227Z,-4.70
2022-12-17T05:09:06.538Z,-4.80
2022-12-17T05:11:52.188Z,-4.70
2022-12-17T05:14:38.957Z,-4.70
2022-12-17T05:17:25.145Z,-4.70
2022-12-17T05:20:13.230Z,-4.70
2022-12-17T05:22:55.288Z,-4.70
2022-12-17T05:25:40.692Z,-4.70
2022-12-17T05:28:26.279Z,-4.60
2022-12-17T05:31:13.646Z,-4.60
2022-12-17T05:33:59.809Z,-4.60
2022-12-17T05:36:45.337Z,-4.50
2022-12-17T05:39:30.807Z,-4.50
2022-12-17T05:42:16.124Z,-4.60
2022-12-17T05:45:02.281Z,-4.60
2022-12-17T05:47:48.889Z,-4.60
2022-12-17T05:50:34.564Z,-4.50
2022-12-17T05:53:21.126Z,-4.60
2022-12-17T05:56:09.628Z,-4.60
2022-12-17T05:58:55.368Z,-4.50
2022-12-17T06:01:44.229Z,-4.50
2022-12-17T06:04:31.162Z,-4.60
2022-12-17T06:07:17.062Z,-4.50
2022-12-17T06:10:02.496Z,-4.60
2022-12-17T06:12:47.873Z,-4.60
2022-12-17T06:15:33.560Z,-4.60
2022-12-17T06:18:19.406Z,-4.60
2022-12-17T06:21:11.018Z,-4.50
2022-12-17T06:23:56.234Z,-4.70
2022-12-17T06:26:41.866Z,-4.70
2022-12-17T06:29:32.710Z,-4.60
2022-12-17T06:32:20.094Z,-4.70
2022-12-17T06:35:05.732Z,-4.70
2022-12-17T06:37:52.730Z,-4.70
2022-12-17T06:40:38.770Z,-4.80
2022-12-17T06:43:24.431Z,-4.80
2022-12-17T06:46:11.121Z,-4.80
2022-12-17T06:48:56.566Z,-4.70
2022-12-17T06:51:50.019Z,-4.80
2022-12-17T06:54:36.724Z,-4.80
2022-12-17T06:57:22.315Z,-4.80
2022-12-17T07:00:07.656Z,-4.80
2022-12-17T07:02:54.960Z,-4.80
2022-12-17T07:08:39.972Z,-4.80
2022-12-17T07:11:27.190Z,-4.80
2022-12-17T07:14:13.050Z,-4.80
2022-12-17T07:16:58.511Z,-4.70
2022-12-17T07:19:44.099Z,-4.80
2022-12-17T07:22:31.116Z,-4.90
2022-12-17T07:25:17.136Z,-4.80
2022-12-17T07:28:11.720Z,-4.90
2022-12-17T07:30:57.454Z,-4.90
2022-12-17T07:33:42.974Z,-4.90
2022-12-17T07:36:28.941Z,-4.90
2022-12-17T07:39:14.340Z,-5.00
2022-12-17T07:42:06.418Z,-5.10
2022-12-17T07:44:53.307Z,-5.10
2022-12-17T07:47:39.243Z,-5.00
2022-12-17T07:50:25.048Z,-5.10
2022-12-17T07:53:17.717Z,-5.10
2022-12-17T07:56:03.215Z,-5.10
2022-12-17T07:58:48.826Z,-5.20
2022-12-17T08:01:35.753Z,-5.10
2022-12-17T08:04:21.197Z,-5.20
2022-12-17T08:07:10.365Z,-5.20
2022-12-17T08:09:58.960Z,-5.20
2022-12-17T08:12:44.470Z,-5.10
2022-12-17T08:15:29.844Z,-4.90
2022-12-17T08:18:24.506Z,-4.70
2022-12-17T08:21:14.889Z,-4.50
2022-12-17T08:24:00.492Z,-4.40
2022-12-17T08:26:48.365Z,-4.00
2022-12-17T08:29:34.309Z,-3.80
2022-12-17T08:32:20.374Z,-3.70
2022-12-17T08:35:07.269Z,-3.70
2022-12-17T08:37:52.621Z,-3.70
2022-12-17T08:40:37.984Z,-3.60
2022-12-17T08:43:23.504Z,-3.60
2022-12-17T08:46:10.124Z,-3.70
2022-12-17T08:48:56.436Z,-3.50
2022-12-17T08:51:43.619Z,-3.50
2022-12-17T08:54:29.347Z,-3.00
2022-12-17T08:57:32.362Z,-3.10
2022-12-17T09:00:18.216Z,-3.10
2022-12-17T09:03:03.942Z,-3.00
2022-12-17T09:05:49.914Z,-2.90
2022-12-17T09:08:37.095Z,-2.80
2022-12-17T09:11:22.684Z,-3.00
2022-12-17T09:14:08.267Z,-3.20
2022-12-17T09:16:54.130Z,-3.30
2022-12-17T09:19:51.073Z,-3.30
2022-12-17T09:22:36.446Z,-3.40
2022-12-17T09:25:23.979Z,-3.60
2022-12-17T09:28:10.170Z,-3.70
2022-12-17T09:30:55.756Z,-3.70
2022-12-17T09:33:41.091Z,-3.70
2022-12-17T09:36:28.106Z,-3.80
2022-12-17T09:39:13.011Z,-3.70
2022-12-17T09:42:07.234Z,-3.70
2022-12-17T09:44:59.745Z,-3.70
2022-12-17T09:47:57.508Z,-3.70
2022-12-17T09:50:43.470Z,-3.60
2022-12-17T09:53:39.911Z,-3.40
2022-12-17T09:56:29.274Z,-3.60
2022-12-17T09:59:16.465Z,-3.50
2022-12-17T10:02:02.747Z,-3.50
2022-12-17T10:04:53.593Z,-3.40
2022-12-17T10:07:43.535Z,-3.50
2022-12-17T10:10:37.638Z,-3.70
2022-12-17T10:13:32.979Z,-3.70
2022-12-17T10:16:20.388Z,-3.50
2022-12-17T10:19:07.981Z,-3.20
2022-12-17T10:21:57.138Z,-2.90
2022-12-17T10:24:43.041Z,-2.70
2022-12-17T10:27:29.900Z,-2.20
2022-12-17T10:30:15.320Z,-1.30
2022-12-17T10:33:07.385Z,-0.60
2022-12-17T10:35:58.391Z,0.20
2022-12-17T10:38:45.929Z,0.60
2022-12-17T10:41:39.688Z,1.10
2022-12-17T10:44:39.771Z,2.00
2022-12-17T10:47:30.348Z,2.90
2022-12-17T10:50:19.331Z,2.70
2022-12-17T10:53:06.178Z,2.60
2022-12-17T10:55:53.251Z,2.70
2022-12-17T10:58:44.325Z,2.50
2022-12-17T11:01:37.404Z,2.00
2022-12-17T11:04:42.566Z,2.30
2022-12-17T11:07:32.965Z,3.10
2022-12-17T11:10:20.994Z,3.90
2022-12-17T11:13:09.454Z,4.00
2022-12-17T11:15:59.616Z,4.10
2022-12-17T11:18:48.424Z,3.50
2022-12-17T11:21:39.883Z,3.40
2022-12-17T11:24:32.016Z,2.70
2022-12-17T11:27:21.080Z,2.70
2022-12-17T11:30:06.936Z,2.40
2022-12-17T11:33:10.380Z,2.30
2022-12-17T11:36:06.345Z,2.10
2022-12-17T11:38:56.936Z,1.80
2022-12-17T11:41:58.572Z,1.60
2022-12-17T11:44:56.785Z,2.10
2022-12-17T11:47:56.155Z,1.40
2022-12-17T11:50:46.880Z,0.90
2022-12-17T11:53:45.288Z,1.00
2022-12-17T11:56:35.227Z,0.40
2022-12-17T11:59:32.536Z,0.40
2022-12-17T12:02:27.782Z,0.40
2022-12-17T12:05:28.812Z,0.10
2022-12-17T12:08:25.905Z,-0.60
2022-12-17T12:11:20.380Z,-0.70
2022-12-17T12:14:12.066Z,-0.70
2022-12-17T12:17:08.593Z,-1.10
2022-12-17T12:20:05.079Z,-1.10
2022-12-17T12:22:54.681Z,-1.20
2022-12-17T12:25:51.664Z,-1.40
2022-12-17T12:28:55.281Z,-1.60
2022-12-17T12:31:50.905Z,-1.50
2022-12-17T12:34:41.481Z,-1.60
2022-12-17T12:37:32.024Z,-1.70
2022-12-17T12:40:23.873Z,-1.70
2022-12-17T12:43:21.153Z,-1.80
2022-12-17T12:46:14.695Z,-2.00
2022-12-17T12:49:05.488Z,-2.30
2022-12-17T12:51:55.289Z,-2.30
2022-12-17T12:54:47.048Z,-2.10
2022-12-17T12:57:50.370Z,-2.00
2022-12-17T13:00:57.422Z,-2.00
2022-12-17T13:03:46.258Z,-2.30
2022-12-17T13:06:16.522Z,-2.20
2022-12-17T13:08:45.918Z,-2.20
2022-12-17T13:11:37.378Z,-2.20
2022-12-17T13:14:14.110Z,-2.20
2022-12-17T13:16:53.696Z,-2.20
2022-12-17T13:19:33.900Z,-2.30
2022-12-17T13:22:28.786Z,-2.30
2022-12-17T13:25:15.822Z,-2.30
2022-12-17T13:27:45.612Z,-2.30
2022-12-17T13:30:31.052Z,-2.30
2022-12-17T13:33:23.973Z,-2.40
2022-12-17T13:36:03.389Z,-2.40
2022-12-17T13:38:43.428Z,-2.50
2022-12-17T13:41:14.695Z,-2.50
2022-12-17T13:43:46.262Z,-2.50
2022-12-17T13:46:20.580Z,-2.60
2022-12-17T13:48:56.321Z,-2.50
2022-12-17T13:51:25.476Z,-2.50
2022-12-17T13:53:54.981Z,-2.60
2022-12-17T13:56:30.565Z,-2.60
2022-12-17T13:59:08.487Z,-2.50
2022-12-17T14:01:46.464Z,-2.50
2022-12-17T14:04:22.861Z,-2.50
2022-12-17T14:06:51.707Z,-2.60
2022-12-17T14:09:23.558Z,-2.50
2022-12-17T14:12:10.680Z,-2.70
2022-12-17T14:14:41.624Z,-2.60
2022-12-17T14:17:18.475Z,-2.70
2022-12-17T14:19:47.750Z,-2.90
2022-12-17T14:22:22.033Z,-2.80
2022-12-17T14:24:50.262Z,-3.00
2022-12-17T14:27:28.056Z,-3.00
2022-12-17T14:29:56.862Z,-3.00
2022-12-17T14:32:27.806Z,-3.20
2022-12-17T14:35:00.603Z,-3.20
2022-12-17T14:37:30.329Z,-3.20
2022-12-17T14:40:04.108Z,-3.30
2022-12-17T14:42:37.851Z,-3.40
2022-12-17T14:45:08.767Z,-3.50
2022-12-17T14:47:41.874Z,-3.60
2022-12-17T14:50:30.991Z,-3.70
2022-12-17T14:53:00.589Z,-3.70
2022-12-17T14:55:34.828Z,-3.80
2022-12-17T14:58:22.677Z,-4.00
2022-12-17T15:01:00.819Z,-4.10
2022-12-17T15:03:30.879Z,-4.20
2022-12-17T15:06:03.364Z,-4.30
2022-12-17T15:08:38.772Z,-4.40
2022-12-17T15:11:07.771Z,-4.50
2022-12-17T15:13:37.201Z,-4.50
2022-12-17T15:16:06.075Z,-4.60
2022-12-17T15:18:34.605Z,-4.70
2022-12-17T15:21:04.021Z,-4.80
2022-12-17T15:23:34.609Z,-4.80
2022-12-17T15:26:04.100Z,-4.90
2022-12-17T15:28:32.179Z,-5.00
2022-12-17T15:31:01.664Z,-5.10
2022-12-17T15:33:30.388Z,-5.10
2022-12-17T15:35:59.867Z,-5.20
2022-12-17T15:38:30.885Z,-5.20
2022-12-17T15:41:01.265Z,-5.30
2022-12-17T15:43:28.492Z,-5.40
2022-12-17T15:46:05.581Z,-5.50
2022-12-17T15:48:33.740Z,-5.50
2022-12-17T15:51:02.054Z,-5.60
2022-12-17T15:53:30.380Z,-5.60
2022-12-17T15:56:01.538Z,-5.70
2022-12-17T15:58:33.876Z,-5.70
2022-12-17T16:01:07.122Z,-5.70
2022-12-17T16:03:40.274Z,-5.70
2022-12-17T16:06:08.685Z,-5.70
2022-12-17T16:08:44.000Z,-5.70
2022-12-17T16:11:16.813Z,-5.80
2022-12-17T16:13:45.036Z,-5.80
2022-12-17T16:16:16.262Z,-5.80
2022-12-17T16:18:45.602Z,-5.90
2022-12-17T16:21:13.859Z,-6.00
2022-12-17T16:23:41.958Z,-6.00
2022-12-17T16:26:12.186Z,-6.00
2022-12-17T16:28:40.832Z,-6.10
2022-12-17T16:31:12.091Z,-6.10
2022-12-17T16:33:43.945Z,-5.90
2022-12-17T16:36:15.471Z,-6.20
2022-12-17T16:38:48.495Z,-6.40
2022-12-17T16:41:18.718Z,-6.40
2022-12-17T16:43:47.299Z,-6.50
2022-12-17T16:46:27.301Z,-6.50
2022-12-17T16:48:58.188Z,-6.60
2022-12-17T16:51:29.596Z,-6.60
2022-12-17T16:53:58.195Z,-6.60
2022-12-17T16:56:28.340Z,-6.70
2022-12-17T16:58:56.946Z,-6.70
2022-12-17T17:01:28.021Z,-6.70
2022-12-17T17:04:01.690Z,-6.70
2022-12-17T17:06:33.575Z,-6.80
2022-12-17T17:09:04.890Z,-6.80
2022-12-17T17:11:32.969Z,-6.80
2022-12-17T17:14:02.104Z,-6.90
2022-12-17T17:16:30.383Z,-6.90
2022-12-17T17:18:59.854Z,-6.90
2022-12-17T17:21:30.334Z,-6.90
2022-12-17T17:24:02.596Z,-7.00
2022-12-17T17:26:33.421Z,-7.00
2022-12-17T17:29:02.331Z,-7.10
2022-12-17T17:34:23.392Z,-7.20
2022-12-17T17:36:51.482Z,-7.20
2022-12-17T17:39:19.484Z,-7.30
2022-12-17T17:41:47.561Z,-7.30
2022-12-17T17:44:15.658Z,-7.40
2022-12-17T17:46:44.234Z,-7.40
2022-12-17T17:49:12.827Z,-7.40
2022-12-17T17:54:32.906Z,-7.60
2022-12-17T17:57:02.379Z,-7.60
2022-12-17T17:59:33.960Z,-7.70
2022-12-17T18:02:03.303Z,-7.80
2022-12-17T18:04:32.473Z,-7.80
2022-12-17T18:07:24.340Z,-7.80
2022-12-17T18:09:51.480Z,-7.90
2022-12-17T18:12:37.063Z,-8.00
2022-12-17T18:15:14.333Z,-7.90
2022-12-17T18:17:43.497Z,-8.00
2022-12-17T18:20:12.795Z,-8.10
2022-12-17T18:22:42.554Z,-8.10
2022-12-17T18:25:10.654Z,-8.10
2022-12-17T18:27:38.821Z,-8.00
2022-12-17T18:30:07.829Z,-8.00
2022-12-17T18:32:36.086Z,-8.00
2022-12-17T18:35:04.178Z,-7.90
2022-12-17T18:37:32.438Z,-7.80
2022-12-17T18:40:01.856Z,-7.80
2022-12-17T18:42:47.445Z,-7.80
2022-12-17T18:45:15.613Z,-7.60
2022-12-17T18:47:44.664Z,-7.70
2022-12-17T18:50:13.785Z,-7.70
2022-12-17T18:52:44.395Z,-7.70
2022-12-17T18:55:14.261Z,-7.60
2022-12-17T18:57:42.328Z,-7.60
2022-12-17T19:00:11.790Z,-7.60
2022-12-17T19:02:40.250Z,-7.60
2022-12-17T19:05:08.986Z,-7.50
2022-12-17T19:07:38.539Z,-7.50
2022-12-17T19:10:07.557Z,-7.40
2022-12-17T19:12:36.979Z,-7.50
2022-12-17T19:15:05.424Z,-7.50
2022-12-17T19:17:33.951Z,-7.50
2022-12-17T19:20:02.486Z,-7.50
2022-12-17T19:22:30.508Z,-7.50
2022-12-17T19:24:58.504Z,-7.60
2022-12-17T19:27:26.539Z,-7.60
2022-12-17T19:29:57.257Z,-7.70
2022-12-17T19:32:29.162Z,-7.80
2022-12-17T19:34:57.237Z,-7.80
2022-12-17T19:37:25.294Z,-7.90
2022-12-17T19:39:53.345Z,-7.90
2022-12-17T19:42:33.440Z,-8.00
2022-12-17T19:45:08.440Z,-8.00
2022-12-17T19:47:39.537Z,-8.00
2022-12-17T19:50:08.065Z,-8.00
2022-12-17T19:52:39.173Z,-8.00
2022-12-17T19:55:07.906Z,-7.90
2022-12-17T19:57:36.289Z,-7.90
2022-12-17T20:00:04.791Z,-7.90
2022-12-17T20:02:34.547Z,-7.90
2022-12-17T20:05:04.604Z,-7.90
2022-12-17T20:07:32.728Z,-7.80
2022-12-17T20:10:03.176Z,-7.80
2022-12-17T20:12:31.225Z,-7.80
2022-12-17T20:14:59.344Z,-7.80
2022-12-17T20:17:27.427Z,-7.80
2022-12-17T20:19:59.155Z,-7.50
2022-12-17T20:22:27.461Z,-7.90
2022-12-17T20:24:55.990Z,-7.80
2022-12-17T20:27:24.127Z,-7.90
2022-12-17T20:29:52.373Z,-7.90
2022-12-17T20:32:21.438Z,-7.90
2022-12-17T20:34:49.878Z,-7.80
2022-12-17T20:37:23.320Z,-7.80
2022-12-17T20:39:51.413Z,-7.70
2022-12-17T20:42:19.438Z,-7.70
2022-12-17T20:44:53.084Z,-7.60
2022-12-17T20:47:21.747Z,-7.50
2022-12-17T20:49:49.929Z,-7.50
2022-12-17T20:52:19.316Z,-7.10
2022-12-17T20:54:47.708Z,-7.30
2022-12-17T20:57:15.812Z,-7.20
2022-12-17T20:59:46.447Z,-7.10
2022-12-17T21:02:14.526Z,-7.10
2022-12-17T21:04:42.880Z,-7.00
2022-12-17T21:07:10.929Z,-7.00
2022-12-17T21:09:40.353Z,-7.00
2022-12-17T21:12:10.455Z,-6.90
2022-12-17T21:14:38.513Z,-6.90
2022-12-17T21:17:06.600Z,-6.80
2022-12-17T21:19:34.696Z,-6.80
2022-12-17T21:22:03.094Z,-6.70
2022-12-17T21:24:34.797Z,-6.70
2022-12-17T21:27:11.140Z,-6.70
2022-12-17T21:29:42.436Z,-6.60
2022-12-17T21:32:10.586Z,-6.70
2022-12-17T21:34:39.178Z,-6.70
2022-12-17T21:37:07.326Z,-6.70
2022-12-17T21:39:37.773Z,-6.70
2022-12-17T21:42:24.477Z,-6.70
2022-12-17T21:44:53.245Z,-6.70
2022-12-17T21:47:21.479Z,-6.70
2022-12-17T21:49:49.550Z,-6.70
2022-12-17T21:52:17.621Z,-6.60
2022-12-17T21:54:45.746Z,-6.60
2022-12-17T21:57:16.114Z,-6.50
2022-12-17T21:59:44.612Z,-6.60
2022-12-17T22:02:15.840Z,-6.50
2022-12-17T22:04:44.086Z,-6.50
2022-12-17T22:07:15.474Z,-6.50
2022-12-17T22:10:05.393Z,-6.50
2022-12-17T22:13:07.241Z,-6.50
2022-12-17T22:15:37.939Z,-6.50
2022-12-17T22:18:11.122Z,-6.60
2022-12-17T22:20:39.409Z,-6.50
2022-12-17T22:23:07.464Z,-6.50
2022-12-17T22:25:38.474Z,-6.40
2022-12-17T22:28:07.845Z,-6.40
2022-12-17T22:30:54.860Z,-6.40
2022-12-17T22:33:39.693Z,-6.40
2022-12-17T22:39:04.288Z,-6.30
2022-12-17T22:44:31.719Z,-6.30
2022-12-17T22:44:38.324Z,-6.30
2022-12-17T22:45:08.074Z,-6.40
2022-12-17T22:47:37.578Z,-6.40
2022-12-17T22:50:06.291Z,-6.30
2022-12-17T22:52:35.065Z,-6.30
2022-12-17T22:55:03.371Z,-6.40
2022-12-17T22:57:34.943Z,-6.40
2022-12-17T23:00:10.156Z,-6.20
2022-12-17T23:02:41.295Z,-6.50
2022-12-17T23:05:09.910Z,-6.40
2022-12-17T23:07:37.955Z,-6.40
2022-12-17T23:10:06.969Z,-6.40
2022-12-17T23:12:56.724Z,-6.40
2022-12-17T23:15:31.571Z,-6.40
2022-12-17T23:18:01.113Z,-6.30
2022-12-17T23:20:31.476Z,-6.30
2022-12-17T23:23:00.423Z,-6.30
2022-12-17T23:25:30.087Z,-6.20
2022-12-17T23:27:58.292Z,-6.20
2022-12-17T23:30:29.174Z,-6.20
2022-12-17T23:32:59.084Z,-6.10
2022-12-17T23:35:27.514Z,-6.10
2022-12-17T23:37:56.138Z,-6.20
2022-12-17T23:40:25.228Z,-6.20
2022-12-17T23:42:53.299Z,-6.20
2022-12-17T23:45:21.286Z,-6.20
2022-12-17T23:47:49.683Z,-6.20
2022-12-17T23:50:19.339Z,-6.20
2022-12-17T23:52:47.344Z,-6.20
2022-12-17T23:55:15.377Z,-6.10
2022-12-17T23:57:43.392Z,-6.00
